Rachel Borchard — V7AT6 — position and weather

sailwx.info

Track history (hours):
 
Tides and Currents Weather Stations Pressure Air Temp Water Temp Dewpoint Dewpoint Depression Visibility Wind Speed Wind Dir Waves Ship Positions

Rachel Borchard

Last reported at 2017-Nov-19 15:17 UTC. Time now 2017-Nov-22 14:52 UTC.
Position N 40°26' E 003°13'.

Length 157 m; draft 9.2 m.

Type: Ship. MMSI: 538005064.

Date/timePositionNaut miles runAvg speedWind from/ knotsBaromVisibWave heightAir tempDewpointWater temp
2017-Nov-19 15:17N 40°26' E 003°13'718.6
2017-Nov-19 14:55N 40°25' E 003°04'1216.5
2017-Nov-19 14:10N 40°22' E 002°48'316.9
2017-Nov-19 13:59N 40°22' E 002°44'160 5.9
2017-Nov-18 11:03N 38°29' E 000°17'3317.6
2017-Nov-18 09:11N 38°02' W 000°07'317.4
2017-Nov-18 09:01N 37°60' W 000°09'917.5
2017-Nov-18 08:29N 37°52' W 000°15'817.3
2017-Nov-18 08:00N 37°45' W 000°21'917.4
2017-Nov-18 07:30N 37°38' W 000°27'1917.5
2017-Nov-18 06:25N 37°24' W 000°44'23117.2
2017-Nov-17 17:02N 36°01' W 005°12'019.0
2017-Nov-17 17:00N 36°00' W 005°13'918.7
2017-Nov-17 16:30N 35°58' W 005°24'19315.6
2017-Nov-17 04:10N 36°35' W 009°19'417.0
2017-Nov-17 03:55N 36°38' W 009°23'717.8
2017-Nov-17 03:30N 36°44' W 009°29'917.8
2017-Nov-17 03:01N 36°51' W 009°35'917.9
2017-Nov-17 02:30N 37°00' W 009°37'917.7
2017-Nov-17 02:01N 37°09' W 009°40'917.7
2017-Nov-17 01:31N 37°17' W 009°43'917.6
2017-Nov-17 01:01N 37°26' W 009°46'918.0
2017-Nov-17 00:31N 37°34' W 009°48'917.9
2017-Nov-17 00:00N 37°43' W 009°50'918.2
2017-Nov-16 23:30N 37°52' W 009°53'918.0
2017-Nov-16 23:00N 38°01' W 009°55'917.9
2017-Nov-16 22:31N 38°10' W 009°57'918.0
2017-Nov-16 22:01N 38°18' W 010°00'917.7
2017-Nov-16 21:31N 38°27' W 010°03'917.7
2017-Nov-16 21:00N 38°36' W 010°05'917.2
2017-Nov-16 20:27N 38°45' W 010°06'817.2
2017-Nov-16 20:00N 38°53' W 010°06'917.4
2017-Nov-16 19:30N 39°01' W 010°01'917.8
2017-Nov-16 19:00N 39°09' W 009°56'11818.3
2017-Nov-16 12:32N 40°57' W 008°52'118.7
2017-Nov-16 12:30N 40°57' W 008°51'918.0
2017-Nov-16 12:01N 41°05' W 008°46'612.7
2017-Nov-16 11:31N 41°11' W 008°42'0 0.6
2017-Nov-16 11:00N 41°11' W 008°42'0 0.0
2017-Nov-16 10:29N 41°11' W 008°42'0 0.0
2017-Nov-16 09:59N 41°11' W 008°42'0 0.0
2017-Nov-16 09:29N 41°11' W 008°42'0 0.0
2017-Nov-16 08:59N 41°11' W 008°42'0 0.0
2017-Nov-16 08:29N 41°11' W 008°42'0 0.0
2017-Nov-16 07:59N 41°11' W 008°42'0 0.0
2017-Nov-16 07:29N 41°11' W 008°42'0 0.0
2017-Nov-16 06:59N 41°11' W 008°42'0 0.0
2017-Nov-16 06:29N 41°11' W 008°42'0 0.0
2017-Nov-16 05:59N 41°11' W 008°42'0 0.0
2017-Nov-16 05:29N 41°11' W 008°42'0 0.0
2017-Nov-16 04:59N 41°11' W 008°42'0 0.0
2017-Nov-16 04:29N 41°11' W 008°42'0 0.0
2017-Nov-16 03:56N 41°11' W 008°42'0 0.0
2017-Nov-16 03:29N 41°11' W 008°42'0 0.0
2017-Nov-16 02:59N 41°11' W 008°42'0 0.0
2017-Nov-16 02:29N 41°11' W 008°42'0 0.0
2017-Nov-16 02:01N 41°11' W 008°42'2 3.9
2017-Nov-16 01:31N 41°09' W 008°43'1 1.3
2017-Nov-16 01:00N 41°09' W 008°44'2 3.2
2017-Nov-16 00:30N 41°09' W 008°46'0 0.1
2017-Nov-15 23:59N 41°09' W 008°46'0 0.0
2017-Nov-15 23:29N 41°09' W 008°46'0 0.0
2017-Nov-15 22:59N 41°09' W 008°46'0 0.0
2017-Nov-15 22:29N 41°09' W 008°46'0 0.3
2017-Nov-15 21:59N 41°09' W 008°46'0 0.1
2017-Nov-15 21:26N 41°09' W 008°46'0 0.1
2017-Nov-15 20:59N 41°09' W 008°46'0 0.1
2017-Nov-15 20:29N 41°09' W 008°46'0 0.0
2017-Nov-15 19:59N 41°09' W 008°46'0 0.1
2017-Nov-15 19:29N 41°09' W 008°46'0 0.0
2017-Nov-15 18:59N 41°09' W 008°46'0 0.0
2017-Nov-15 18:29N 41°09' W 008°46'0 0.0
2017-Nov-15 17:59N 41°09' W 008°46'0 0.1
2017-Nov-15 17:29N 41°09' W 008°46'0 0.1
2017-Nov-15 16:59N 41°09' W 008°46'0 0.1
2017-Nov-15 16:29N 41°09' W 008°46'0 0.1
2017-Nov-15 15:59N 41°09' W 008°46'0 0.1
2017-Nov-15 15:29N 41°09' W 008°46'0 0.0
2017-Nov-15 14:59N 41°09' W 008°46'0 0.1
2017-Nov-15 14:29N 41°09' W 008°46'0 0.0
2017-Nov-15 13:59N 41°09' W 008°46'0 0.1
2017-Nov-15 13:29N 41°09' W 008°46'0 0.3
2017-Nov-15 12:59N 41°09' W 008°46'0 0.1
2017-Nov-15 12:29N 41°09' W 008°46'0 0.0
2017-Nov-15 11:59N 41°09' W 008°46'0 0.0
2017-Nov-15 11:29N 41°09' W 008°46'0 0.0
2017-Nov-15 10:59N 41°09' W 008°46'0 0.0
2017-Nov-15 10:29N 41°09' W 008°46'0 0.0
2017-Nov-15 09:59N 41°09' W 008°46'0 0.0
2017-Nov-15 09:29N 41°09' W 008°46'0 0.0
2017-Nov-15 08:59N 41°09' W 008°46'0 0.1
2017-Nov-15 08:29N 41°09' W 008°46'0 0.2
2017-Nov-15 07:59N 41°09' W 008°46'0 0.0
2017-Nov-15 07:29N 41°09' W 008°46'0 0.0
2017-Nov-15 06:59N 41°09' W 008°46'0 0.1
2017-Nov-15 06:29N 41°09' W 008°46'1 1.5
2017-Nov-15 06:00N 41°09' W 008°46'611.7
2017-Nov-15 05:27N 41°16' W 008°49'39914.4
2017-Nov-14 01:51N 47°52' W 007°51'33514.0
2017-Nov-13 01:58N 53°21' W 006°13'0 0.0
2017-Nov-13 01:28N 53°21' W 006°13'0 0.0
2017-Nov-13 00:55N 53°21' W 006°13'0 0.0
2017-Nov-13 00:22N 53°21' W 006°13'0 0.0
2017-Nov-12 23:46N 53°21' W 006°13'0 0.0
2017-Nov-12 23:10N 53°21' W 006°13'0 0.0
2017-Nov-12 22:58N 53°21' W 006°13'0 0.0
2017-Nov-12 22:28N 53°21' W 006°13'0 0.0
2017-Nov-12 21:58N 53°21' W 006°13'0 0.0
2017-Nov-12 21:25N 53°21' W 006°13'0 0.0
2017-Nov-12 20:49N 53°21' W 006°13'0 0.0
2017-Nov-12 20:16N 53°21' W 006°13'0 0.0
2017-Nov-12 19:40N 53°21' W 006°13'0 0.0
2017-Nov-12 19:28N 53°21' W 006°13'0 0.0
2017-Nov-12 18:58N 53°21' W 006°13'0 0.0
2017-Nov-12 18:28N 53°21' W 006°13'0 0.0
2017-Nov-12 17:55N 53°21' W 006°13'0 0.0
2017-Nov-12 17:19N 53°21' W 006°13'0 0.0
2017-Nov-12 16:46N 53°21' W 006°13'0 0.0
2017-Nov-12 16:10N 53°21' W 006°13'0 0.0
2017-Nov-12 15:58N 53°21' W 006°13'0 0.0
2017-Nov-12 15:28N 53°21' W 006°13'0 0.0
2017-Nov-12 14:58N 53°21' W 006°13'0 0.5
2017-Nov-12 14:31N 53°21' W 006°12'4 7.3
2017-Nov-12 14:01N 53°20' W 006°06'611.0
2017-Nov-12 13:30N 53°22' W 005°57'510.5
2017-Nov-12 13:00N 53°23' W 005°49'815.4
2017-Nov-12 12:30N 53°25' W 005°36'5016.8
2017-Nov-12 09:30N 53°33' W 004°13'917.3
2017-Nov-12 09:00N 53°33' W 003°58'917.2
2017-Nov-12 08:30N 53°33' W 003°44'917.0
2017-Nov-12 08:00N 53°33' W 003°30'816.0
2017-Nov-12 07:30N 53°32' W 003°16'612.2
2017-Nov-12 07:01N 53°31' W 003°06'510.2
2017-Nov-12 06:30N 53°27' W 003°01'0 0.7
2017-Nov-12 06:00N 53°27' W 003°01'1 1.0
2017-Nov-12 05:27N 53°28' W 003°01'0 0.0
2017-Nov-12 05:00N 53°28' W 003°01'0 0.0
2017-Nov-12 04:30N 53°28' W 003°01'0 0.0
2017-Nov-12 04:00N 53°28' W 003°01'0 0.0
2017-Nov-12 03:30N 53°28' W 003°01'0 0.0
2017-Nov-12 03:00N 53°28' W 003°01'0 0.0
2017-Nov-12 02:27N 53°28' W 003°01'0 0.0
2017-Nov-12 02:00N 53°28' W 003°01'0 0.0
2017-Nov-12 01:30N 53°28' W 003°01'0 0.0
2017-Nov-12 01:00N 53°28' W 003°01'0 0.0
2017-Nov-12 00:30N 53°28' W 003°01'0 0.0
2017-Nov-12 00:00N 53°28' W 003°01'0 0.0
2017-Nov-11 23:30N 53°28' W 003°01'0 0.0
2017-Nov-11 22:57N 53°28' W 003°01'0 0.0
2017-Nov-11 22:30N 53°28' W 003°01'0 0.0
2017-Nov-11 22:00N 53°28' W 003°01'0 0.0
2017-Nov-11 21:30N 53°28' W 003°01'0 0.0
2017-Nov-11 21:00N 53°28' W 003°01'0 0.0
2017-Nov-11 20:30N 53°28' W 003°01'0 0.0
2017-Nov-11 20:00N 53°28' W 003°01'0 0.0
2017-Nov-11 19:30N 53°28' W 003°01'0 0.0
2017-Nov-11 18:54N 53°28' W 003°01'0 0.0
2017-Nov-11 18:30N 53°28' W 003°01'0 0.0
2017-Nov-11 18:00N 53°28' W 003°01'0 0.0
2017-Nov-11 17:30N 53°28' W 003°01'0 0.0
2017-Nov-11 17:00N 53°28' W 003°01'0 0.0
2017-Nov-11 16:24N 53°28' W 003°01'0 0.0
2017-Nov-11 16:00N 53°28' W 003°01'0 0.0
2017-Nov-11 15:30N 53°28' W 003°01'0 0.0
2017-Nov-11 14:57N 53°28' W 003°01'0 0.0
2017-Nov-11 14:30N 53°28' W 003°01'0 0.0
2017-Nov-11 13:54N 53°28' W 003°01'0 0.0
2017-Nov-11 13:30N 53°28' W 003°01'0 0.0
2017-Nov-11 13:00N 53°28' W 003°01'0 0.0
2017-Nov-11 12:27N 53°28' W 003°01'0 0.0
2017-Nov-11 12:00N 53°28' W 003°01'0 0.0
2017-Nov-11 11:30N 53°28' W 003°01'0 0.0
2017-Nov-11 10:57N 53°28' W 003°01'0 0.0
2017-Nov-11 10:30N 53°28' W 003°01'0 0.0
2017-Nov-11 10:00N 53°28' W 003°01'0 0.0
2017-Nov-11 09:30N 53°28' W 003°01'0 0.0
2017-Nov-11 08:57N 53°28' W 003°01'0 0.0
2017-Nov-11 08:30N 53°28' W 003°01'0 0.0
2017-Nov-11 08:00N 53°28' W 003°01'0 0.0
2017-Nov-11 07:30N 53°28' W 003°01'0 0.0
2017-Nov-11 06:57N 53°28' W 003°01'0 0.0
2017-Nov-11 06:30N 53°28' W 003°01'0 0.0
2017-Nov-11 06:00N 53°28' W 003°01'0 0.0
2017-Nov-11 05:27N 53°28' W 003°01'0 0.0
2017-Nov-11 05:00N 53°28' W 003°01'0 0.0
2017-Nov-11 04:30N 53°28' W 003°01'0 0.0
2017-Nov-11 04:00N 53°28' W 003°01'0 0.6
2017-Nov-11 03:30N 53°27' W 003°01'0 0.3
2017-Nov-11 03:01N 53°27' W 003°01'0 0.5
2017-Nov-11 02:30N 53°27' W 003°01'1 1.4
2017-Nov-11 02:00N 53°27' W 003°02'3 6.7
2017-Nov-11 01:30N 53°30' W 003°06'611.2
2017-Nov-11 01:00N 53°31' W 003°15'815.1
2017-Nov-11 00:30N 53°31' W 003°27'816.7
2017-Nov-11 00:00N 53°30' W 003°41'816.5
2017-Nov-10 23:30N 53°29' W 003°55'816.4
2017-Nov-10 23:00N 53°28' W 004°09'12111.9
2017-Nov-10 12:47N 51°43' W 005°50'515.7
2017-Nov-10 12:27N 51°38' W 005°52'715.6
2017-Nov-10 12:00N 51°31' W 005°55'7314.8
2017-Nov-10 07:05N 50°21' W 006°28'515.2
2017-Nov-10 06:44N 50°16' W 006°30'411.8
2017-Nov-10 06:24N 50°12' W 006°32'4714.6
2017-Nov-10 03:09N 49°27' W 006°53'214.3
2017-Nov-10 02:59N 49°24' W 006°54'714.0
2017-Nov-10 02:30N 49°18' W 006°58'713.8
2017-Nov-10 02:00N 49°12' W 007°01'7013.7
2017-Nov-09 20:53N 48°05' W 007°33'1114.4
2017-Nov-09 20:07N 47°54' W 007°38'614.7
2017-Nov-09 19:41N 47°48' W 007°41'  
Track history (hours):
 
Tides and Currents Weather Stations Pressure Air Temp Water Temp Dewpoint Dewpoint Depression Visibility Wind Speed Wind Dir Waves Ship Positions

Rachel Borchard

Last reported at 2017-Nov-19 15:17 UTC. Time now 2017-Nov-22 14:52 UTC.
Position N 40°26' E 003°13'.

Length 157 m; draft 9.2 m.

Type: Ship. MMSI: 538005064.

Date/timePositionNaut miles runAvg speedWind from/ knotsBaromVisibWave heightAir tempDewpointWater temp
2017-Nov-19 15:17N 40°26' E 003°13'718.6
2017-Nov-19 14:55N 40°25' E 003°04'1216.5
2017-Nov-19 14:10N 40°22' E 002°48'316.9
2017-Nov-19 13:59N 40°22' E 002°44'160 5.9
2017-Nov-18 11:03N 38°29' E 000°17'3317.6
2017-Nov-18 09:11N 38°02' W 000°07'317.4
2017-Nov-18 09:01N 37°60' W 000°09'917.5
2017-Nov-18 08:29N 37°52' W 000°15'817.3
2017-Nov-18 08:00N 37°45' W 000°21'917.4
2017-Nov-18 07:30N 37°38' W 000°27'1917.5
2017-Nov-18 06:25N 37°24' W 000°44'23117.2
2017-Nov-17 17:02N 36°01' W 005°12'019.0
2017-Nov-17 17:00N 36°00' W 005°13'918.7
2017-Nov-17 16:30N 35°58' W 005°24'19315.6
2017-Nov-17 04:10N 36°35' W 009°19'417.0
2017-Nov-17 03:55N 36°38' W 009°23'717.8
2017-Nov-17 03:30N 36°44' W 009°29'917.8
2017-Nov-17 03:01N 36°51' W 009°35'917.9
2017-Nov-17 02:30N 37°00' W 009°37'917.7
2017-Nov-17 02:01N 37°09' W 009°40'917.7
2017-Nov-17 01:31N 37°17' W 009°43'917.6
2017-Nov-17 01:01N 37°26' W 009°46'918.0
2017-Nov-17 00:31N 37°34' W 009°48'917.9
2017-Nov-17 00:00N 37°43' W 009°50'918.2
2017-Nov-16 23:30N 37°52' W 009°53'918.0
2017-Nov-16 23:00N 38°01' W 009°55'917.9
2017-Nov-16 22:31N 38°10' W 009°57'918.0
2017-Nov-16 22:01N 38°18' W 010°00'917.7
2017-Nov-16 21:31N 38°27' W 010°03'917.7
2017-Nov-16 21:00N 38°36' W 010°05'917.2
2017-Nov-16 20:27N 38°45' W 010°06'817.2
2017-Nov-16 20:00N 38°53' W 010°06'917.4
2017-Nov-16 19:30N 39°01' W 010°01'917.8
2017-Nov-16 19:00N 39°09' W 009°56'11818.3
2017-Nov-16 12:32N 40°57' W 008°52'118.7
2017-Nov-16 12:30N 40°57' W 008°51'918.0
2017-Nov-16 12:01N 41°05' W 008°46'612.7
2017-Nov-16 11:31N 41°11' W 008°42'0 0.6
2017-Nov-16 11:00N 41°11' W 008°42'0 0.0
2017-Nov-16 10:29N 41°11' W 008°42'0 0.0
2017-Nov-16 09:59N 41°11' W 008°42'0 0.0
2017-Nov-16 09:29N 41°11' W 008°42'0 0.0
2017-Nov-16 08:59N 41°11' W 008°42'0 0.0
2017-Nov-16 08:29N 41°11' W 008°42'0 0.0
2017-Nov-16 07:59N 41°11' W 008°42'0 0.0
2017-Nov-16 07:29N 41°11' W 008°42'0 0.0
2017-Nov-16 06:59N 41°11' W 008°42'0 0.0
2017-Nov-16 06:29N 41°11' W 008°42'0 0.0
2017-Nov-16 05:59N 41°11' W 008°42'0 0.0
2017-Nov-16 05:29N 41°11' W 008°42'0 0.0
2017-Nov-16 04:59N 41°11' W 008°42'0 0.0
2017-Nov-16 04:29N 41°11' W 008°42'0 0.0
2017-Nov-16 03:56N 41°11' W 008°42'0 0.0
2017-Nov-16 03:29N 41°11' W 008°42'0 0.0
2017-Nov-16 02:59N 41°11' W 008°42'0 0.0
2017-Nov-16 02:29N 41°11' W 008°42'0 0.0
2017-Nov-16 02:01N 41°11' W 008°42'2 3.9
2017-Nov-16 01:31N 41°09' W 008°43'1 1.3
2017-Nov-16 01:00N 41°09' W 008°44'2 3.2
2017-Nov-16 00:30N 41°09' W 008°46'0 0.1
2017-Nov-15 23:59N 41°09' W 008°46'0 0.0
2017-Nov-15 23:29N 41°09' W 008°46'0 0.0
2017-Nov-15 22:59N 41°09' W 008°46'0 0.0
2017-Nov-15 22:29N 41°09' W 008°46'0 0.3
2017-Nov-15 21:59N 41°09' W 008°46'0 0.1
2017-Nov-15 21:26N 41°09' W 008°46'0 0.1
2017-Nov-15 20:59N 41°09' W 008°46'0 0.1
2017-Nov-15 20:29N 41°09' W 008°46'0 0.0
2017-Nov-15 19:59N 41°09' W 008°46'0 0.1
2017-Nov-15 19:29N 41°09' W 008°46'0 0.0
2017-Nov-15 18:59N 41°09' W 008°46'0 0.0
2017-Nov-15 18:29N 41°09' W 008°46'0 0.0
2017-Nov-15 17:59N 41°09' W 008°46'0 0.1
2017-Nov-15 17:29N 41°09' W 008°46'0 0.1
2017-Nov-15 16:59N 41°09' W 008°46'0 0.1
2017-Nov-15 16:29N 41°09' W 008°46'0 0.1
2017-Nov-15 15:59N 41°09' W 008°46'0 0.1
2017-Nov-15 15:29N 41°09' W 008°46'0 0.0
2017-Nov-15 14:59N 41°09' W 008°46'0 0.1
2017-Nov-15 14:29N 41°09' W 008°46'0 0.0
2017-Nov-15 13:59N 41°09' W 008°46'0 0.1
2017-Nov-15 13:29N 41°09' W 008°46'0 0.3
2017-Nov-15 12:59N 41°09' W 008°46'0 0.1
2017-Nov-15 12:29N 41°09' W 008°46'0 0.0
2017-Nov-15 11:59N 41°09' W 008°46'0 0.0
2017-Nov-15 11:29N 41°09' W 008°46'0 0.0
2017-Nov-15 10:59N 41°09' W 008°46'0 0.0
2017-Nov-15 10:29N 41°09' W 008°46'0 0.0
2017-Nov-15 09:59N 41°09' W 008°46'0 0.0
2017-Nov-15 09:29N 41°09' W 008°46'0 0.0
2017-Nov-15 08:59N 41°09' W 008°46'0 0.1
2017-Nov-15 08:29N 41°09' W 008°46'0 0.2
2017-Nov-15 07:59N 41°09' W 008°46'0 0.0
2017-Nov-15 07:29N 41°09' W 008°46'0 0.0
2017-Nov-15 06:59N 41°09' W 008°46'0 0.1
2017-Nov-15 06:29N 41°09' W 008°46'1 1.5
2017-Nov-15 06:00N 41°09' W 008°46'611.7
2017-Nov-15 05:27N 41°16' W 008°49'39914.4
2017-Nov-14 01:51N 47°52' W 007°51'33514.0
2017-Nov-13 01:58N 53°21' W 006°13'0 0.0
2017-Nov-13 01:28N 53°21' W 006°13'0 0.0
2017-Nov-13 00:55N 53°21' W 006°13'0 0.0
2017-Nov-13 00:22N 53°21' W 006°13'0 0.0
2017-Nov-12 23:46N 53°21' W 006°13'0 0.0
2017-Nov-12 23:10N 53°21' W 006°13'0 0.0
2017-Nov-12 22:58N 53°21' W 006°13'0 0.0
2017-Nov-12 22:28N 53°21' W 006°13'0 0.0
2017-Nov-12 21:58N 53°21' W 006°13'0 0.0
2017-Nov-12 21:25N 53°21' W 006°13'0 0.0
2017-Nov-12 20:49N 53°21' W 006°13'0 0.0
2017-Nov-12 20:16N 53°21' W 006°13'0 0.0
2017-Nov-12 19:40N 53°21' W 006°13'0 0.0
2017-Nov-12 19:28N 53°21' W 006°13'0 0.0
2017-Nov-12 18:58N 53°21' W 006°13'0 0.0
2017-Nov-12 18:28N 53°21' W 006°13'0 0.0
2017-Nov-12 17:55N 53°21' W 006°13'0 0.0
2017-Nov-12 17:19N 53°21' W 006°13'0 0.0
2017-Nov-12 16:46N 53°21' W 006°13'0 0.0
2017-Nov-12 16:10N 53°21' W 006°13'0 0.0
2017-Nov-12 15:58N 53°21' W 006°13'0 0.0
2017-Nov-12 15:28N 53°21' W 006°13'0 0.0
2017-Nov-12 14:58N 53°21' W 006°13'0 0.5
2017-Nov-12 14:31N 53°21' W 006°12'4 7.3
2017-Nov-12 14:01N 53°20' W 006°06'611.0
2017-Nov-12 13:30N 53°22' W 005°57'510.5
2017-Nov-12 13:00N 53°23' W 005°49'815.4
2017-Nov-12 12:30N 53°25' W 005°36'5016.8
2017-Nov-12 09:30N 53°33' W 004°13'917.3
2017-Nov-12 09:00N 53°33' W 003°58'917.2
2017-Nov-12 08:30N 53°33' W 003°44'917.0
2017-Nov-12 08:00N 53°33' W 003°30'816.0
2017-Nov-12 07:30N 53°32' W 003°16'612.2
2017-Nov-12 07:01N 53°31' W 003°06'510.2
2017-Nov-12 06:30N 53°27' W 003°01'0 0.7
2017-Nov-12 06:00N 53°27' W 003°01'1 1.0
2017-Nov-12 05:27N 53°28' W 003°01'0 0.0
2017-Nov-12 05:00N 53°28' W 003°01'0 0.0
2017-Nov-12 04:30N 53°28' W 003°01'0 0.0
2017-Nov-12 04:00N 53°28' W 003°01'0 0.0
2017-Nov-12 03:30N 53°28' W 003°01'0 0.0
2017-Nov-12 03:00N 53°28' W 003°01'0 0.0
2017-Nov-12 02:27N 53°28' W 003°01'0 0.0
2017-Nov-12 02:00N 53°28' W 003°01'0 0.0
2017-Nov-12 01:30N 53°28' W 003°01'0 0.0
2017-Nov-12 01:00N 53°28' W 003°01'0 0.0
2017-Nov-12 00:30N 53°28' W 003°01'0 0.0
2017-Nov-12 00:00N 53°28' W 003°01'0 0.0
2017-Nov-11 23:30N 53°28' W 003°01'0 0.0
2017-Nov-11 22:57N 53°28' W 003°01'0 0.0
2017-Nov-11 22:30N 53°28' W 003°01'0 0.0
2017-Nov-11 22:00N 53°28' W 003°01'0 0.0
2017-Nov-11 21:30N 53°28' W 003°01'0 0.0
2017-Nov-11 21:00N 53°28' W 003°01'0 0.0
2017-Nov-11 20:30N 53°28' W 003°01'0 0.0
2017-Nov-11 20:00N 53°28' W 003°01'0 0.0
2017-Nov-11 19:30N 53°28' W 003°01'0 0.0
2017-Nov-11 18:54N 53°28' W 003°01'0 0.0
2017-Nov-11 18:30N 53°28' W 003°01'0 0.0
2017-Nov-11 18:00N 53°28' W 003°01'0 0.0
2017-Nov-11 17:30N 53°28' W 003°01'0 0.0
2017-Nov-11 17:00N 53°28' W 003°01'0 0.0
2017-Nov-11 16:24N 53°28' W 003°01'0 0.0
2017-Nov-11 16:00N 53°28' W 003°01'0 0.0
2017-Nov-11 15:30N 53°28' W 003°01'0 0.0
2017-Nov-11 14:57N 53°28' W 003°01'0 0.0
2017-Nov-11 14:30N 53°28' W 003°01'0 0.0
2017-Nov-11 13:54N 53°28' W 003°01'0 0.0
2017-Nov-11 13:30N 53°28' W 003°01'0 0.0
2017-Nov-11 13:00N 53°28' W 003°01'0 0.0
2017-Nov-11 12:27N 53°28' W 003°01'0 0.0
2017-Nov-11 12:00N 53°28' W 003°01'0 0.0
2017-Nov-11 11:30N 53°28' W 003°01'0 0.0
2017-Nov-11 10:57N 53°28' W 003°01'0 0.0
2017-Nov-11 10:30N 53°28' W 003°01'0 0.0
2017-Nov-11 10:00N 53°28' W 003°01'0 0.0
2017-Nov-11 09:30N 53°28' W 003°01'0 0.0
2017-Nov-11 08:57N 53°28' W 003°01'0 0.0
2017-Nov-11 08:30N 53°28' W 003°01'0 0.0
2017-Nov-11 08:00N 53°28' W 003°01'0 0.0
2017-Nov-11 07:30N 53°28' W 003°01'0 0.0
2017-Nov-11 06:57N 53°28' W 003°01'0 0.0
2017-Nov-11 06:30N 53°28' W 003°01'0 0.0
2017-Nov-11 06:00N 53°28' W 003°01'0 0.0
2017-Nov-11 05:27N 53°28' W 003°01'0 0.0
2017-Nov-11 05:00N 53°28' W 003°01'0 0.0
2017-Nov-11 04:30N 53°28' W 003°01'0 0.0
2017-Nov-11 04:00N 53°28' W 003°01'0 0.6
2017-Nov-11 03:30N 53°27' W 003°01'0 0.3
2017-Nov-11 03:01N 53°27' W 003°01'0 0.5
2017-Nov-11 02:30N 53°27' W 003°01'1 1.4
2017-Nov-11 02:00N 53°27' W 003°02'3 6.7
2017-Nov-11 01:30N 53°30' W 003°06'611.2
2017-Nov-11 01:00N 53°31' W 003°15'815.1
2017-Nov-11 00:30N 53°31' W 003°27'816.7
2017-Nov-11 00:00N 53°30' W 003°41'816.5
2017-Nov-10 23:30N 53°29' W 003°55'816.4
2017-Nov-10 23:00N 53°28' W 004°09'12111.9
2017-Nov-10 12:47N 51°43' W 005°50'515.7
2017-Nov-10 12:27N 51°38' W 005°52'715.6
2017-Nov-10 12:00N 51°31' W 005°55'7314.8
2017-Nov-10 07:05N 50°21' W 006°28'515.2
2017-Nov-10 06:44N 50°16' W 006°30'411.8
2017-Nov-10 06:24N 50°12' W 006°32'4714.6
2017-Nov-10 03:09N 49°27' W 006°53'214.3
2017-Nov-10 02:59N 49°24' W 006°54'714.0
2017-Nov-10 02:30N 49°18' W 006°58'713.8
2017-Nov-10 02:00N 49°12' W 007°01'7013.7
2017-Nov-09 20:53N 48°05' W 007°33'1114.4
2017-Nov-09 20:07N 47°54' W 007°38'614.7
2017-Nov-09 19:41N 47°48' W 007°41'  

Dump ship's entire track history